sensor_id;sensor_type;location;lat;lon;timestamp;P1;durP1;ratioP1;P2;durP2;ratioP2
20697;SDS011;10508;50.956;4.640;2023-04-23T00:01:57;24.90;;;12.52;;
20697;SDS011;10508;50.956;4.640;2023-04-23T00:04:24;27.08;;;12.48;;
20697;SDS011;10508;50.956;4.640;2023-04-23T00:06:51;24.17;;;11.80;;
20697;SDS011;10508;50.956;4.640;2023-04-23T00:09:17;33.53;;;13.80;;
20697;SDS011;10508;50.956;4.640;2023-04-23T00:11:43;29.30;;;15.13;;
20697;SDS011;10508;50.956;4.640;2023-04-23T00:14:09;26.67;;;13.45;;
20697;SDS011;10508;50.956;4.640;2023-04-23T00:16:36;23.58;;;11.60;;
20697;SDS011;10508;50.956;4.640;2023-04-23T00:19:02;18.35;;;9.80;;
20697;SDS011;10508;50.956;4.640;2023-04-23T00:21:28;19.25;;;10.68;;
20697;SDS011;10508;50.956;4.640;2023-04-23T00:23:55;20.08;;;10.70;;
20697;SDS011;10508;50.956;4.640;2023-04-23T00:26:21;22.63;;;11.32;;
20697;SDS011;10508;50.956;4.640;2023-04-23T00:28:47;24.67;;;12.93;;
20697;SDS011;10508;50.956;4.640;2023-04-23T00:31:13;21.60;;;12.25;;
20697;SDS011;10508;50.956;4.640;2023-04-23T00:33:39;22.60;;;11.57;;
20697;SDS011;10508;50.956;4.640;2023-04-23T00:36:05;23.17;;;12.30;;
20697;SDS011;10508;50.956;4.640;2023-04-23T00:38:31;23.42;;;11.73;;
20697;SDS011;10508;50.956;4.640;2023-04-23T00:40:57;23.80;;;11.88;;
20697;SDS011;10508;50.956;4.640;2023-04-23T00:43:23;28.55;;;13.38;;
20697;SDS011;10508;50.956;4.640;2023-04-23T00:45:49;25.52;;;13.13;;
20697;SDS011;10508;50.956;4.640;2023-04-23T00:48:16;25.75;;;13.30;;
20697;SDS011;10508;50.956;4.640;2023-04-23T00:50:42;25.95;;;12.50;;
20697;SDS011;10508;50.956;4.640;2023-04-23T00:53:08;25.50;;;12.80;;
20697;SDS011;10508;50.956;4.640;2023-04-23T00:55:34;25.50;;;13.07;;
20697;SDS011;10508;50.956;4.640;2023-04-23T00:58:00;24.98;;;12.52;;
20697;SDS011;10508;50.956;4.640;2023-04-23T01:00:26;23.63;;;12.60;;
20697;SDS011;10508;50.956;4.640;2023-04-23T01:02:52;25.95;;;12.93;;
20697;SDS011;10508;50.956;4.640;2023-04-23T01:05:18;26.10;;;12.65;;
20697;SDS011;10508;50.956;4.640;2023-04-23T01:07:44;23.33;;;12.48;;
20697;SDS011;10508;50.956;4.640;2023-04-23T01:10:11;23.83;;;12.07;;
20697;SDS011;10508;50.956;4.640;2023-04-23T01:12:37;23.38;;;11.30;;
20697;SDS011;10508;50.956;4.640;2023-04-23T01:15:04;23.48;;;11.95;;
20697;SDS011;10508;50.956;4.640;2023-04-23T01:17:31;23.08;;;11.88;;
20697;SDS011;10508;50.956;4.640;2023-04-23T01:19:58;26.38;;;12.43;;
20697;SDS011;10508;50.956;4.640;2023-04-23T01:22:24;25.35;;;12.23;;
20697;SDS011;10508;50.956;4.640;2023-04-23T01:24:50;26.02;;;12.88;;
20697;SDS011;10508;50.956;4.640;2023-04-23T01:27:17;21.88;;;12.20;;
20697;SDS011;10508;50.956;4.640;2023-04-23T01:29:44;20.15;;;11.13;;
20697;SDS011;10508;50.956;4.640;2023-04-23T01:32:10;24.35;;;11.63;;
20697;SDS011;10508;50.956;4.640;2023-04-23T01:34:37;21.95;;;11.80;;
20697;SDS011;10508;50.956;4.640;2023-04-23T01:37:03;23.42;;;12.38;;
20697;SDS011;10508;50.956;4.640;2023-04-23T01:39:30;25.25;;;11.82;;
20697;SDS011;10508;50.956;4.640;2023-04-23T01:41:56;23.08;;;11.65;;
20697;SDS011;10508;50.956;4.640;2023-04-23T01:44:22;22.00;;;11.45;;
20697;SDS011;10508;50.956;4.640;2023-04-23T01:46:48;20.65;;;11.57;;
20697;SDS011;10508;50.956;4.640;2023-04-23T01:49:14;27.23;;;12.18;;
20697;SDS011;10508;50.956;4.640;2023-04-23T01:51:41;21.25;;;11.90;;
20697;SDS011;10508;50.956;4.640;2023-04-23T01:54:07;22.58;;;11.20;;
20697;SDS011;10508;50.956;4.640;2023-04-23T01:56:33;24.00;;;11.80;;
20697;SDS011;10508;50.956;4.640;2023-04-23T01:59:00;21.85;;;11.20;;
20697;SDS011;10508;50.956;4.640;2023-04-23T02:01:39;21.23;;;11.05;;
20697;SDS011;10508;50.956;4.640;2023-04-23T02:04:06;20.98;;;11.27;;
20697;SDS011;10508;50.956;4.640;2023-04-23T02:06:32;21.60;;;11.15;;
20697;SDS011;10508;50.956;4.640;2023-04-23T02:08:58;19.42;;;10.80;;
20697;SDS011;10508;50.956;4.640;2023-04-23T02:11:24;20.13;;;11.18;;
20697;SDS011;10508;50.956;4.640;2023-04-23T02:13:50;23.65;;;11.63;;
20697;SDS011;10508;50.956;4.640;2023-04-23T02:16:16;17.17;;;9.98;;
20697;SDS011;10508;50.956;4.640;2023-04-23T02:18:43;19.85;;;10.75;;
20697;SDS011;10508;50.956;4.640;2023-04-23T02:21:09;18.30;;;10.23;;
20697;SDS011;10508;50.956;4.640;2023-04-23T02:23:37;18.95;;;10.65;;
20697;SDS011;10508;50.956;4.640;2023-04-23T02:26:03;20.38;;;11.75;;
20697;SDS011;10508;50.956;4.640;2023-04-23T02:28:29;19.02;;;10.13;;
20697;SDS011;10508;50.956;4.640;2023-04-23T02:30:55;21.42;;;10.60;;
20697;SDS011;10508;50.956;4.640;2023-04-23T02:33:21;21.55;;;11.07;;
20697;SDS011;10508;50.956;4.640;2023-04-23T02:35:47;19.30;;;10.45;;
20697;SDS011;10508;50.956;4.640;2023-04-23T02:38:13;22.25;;;9.90;;
20697;SDS011;10508;50.956;4.640;2023-04-23T02:40:39;17.40;;;9.93;;
20697;SDS011;10508;50.956;4.640;2023-04-23T02:43:05;18.80;;;10.02;;
20697;SDS011;10508;50.956;4.640;2023-04-23T02:45:31;17.73;;;9.73;;
20697;SDS011;10508;50.956;4.640;2023-04-23T02:47:57;17.95;;;10.25;;
20697;SDS011;10508;50.956;4.640;2023-04-23T02:50:23;19.00;;;9.93;;
20697;SDS011;10508;50.956;4.640;2023-04-23T02:52:49;20.50;;;9.90;;
20697;SDS011;10508;50.956;4.640;2023-04-23T02:55:16;21.10;;;10.20;;
20697;SDS011;10508;50.956;4.640;2023-04-23T02:57:42;18.95;;;10.70;;
20697;SDS011;10508;50.956;4.640;2023-04-23T03:00:09;17.75;;;9.70;;
20697;SDS011;10508;50.956;4.640;2023-04-23T03:02:36;17.95;;;9.52;;
20697;SDS011;10508;50.956;4.640;2023-04-23T03:05:02;18.83;;;9.65;;
20697;SDS011;10508;50.956;4.640;2023-04-23T03:07:28;17.40;;;9.60;;
20697;SDS011;10508;50.956;4.640;2023-04-23T03:09:55;20.35;;;10.32;;
20697;SDS011;10508;50.956;4.640;2023-04-23T03:12:21;18.38;;;9.57;;
20697;SDS011;10508;50.956;4.640;2023-04-23T03:15:05;19.40;;;10.05;;
20697;SDS011;10508;50.956;4.640;2023-04-23T03:17:31;19.85;;;9.73;;
20697;SDS011;10508;50.956;4.640;2023-04-23T03:19:58;17.00;;;9.60;;
20697;SDS011;10508;50.956;4.640;2023-04-23T03:22:24;17.85;;;9.88;;
20697;SDS011;10508;50.956;4.640;2023-04-23T03:24:50;19.83;;;9.43;;
20697;SDS011;10508;50.956;4.640;2023-04-23T03:27:16;18.45;;;9.90;;
20697;SDS011;10508;50.956;4.640;2023-04-23T03:29:42;19.23;;;9.23;;
20697;SDS011;10508;50.956;4.640;2023-04-23T03:32:08;16.23;;;8.77;;
20697;SDS011;10508;50.956;4.640;2023-04-23T03:34:34;20.98;;;10.55;;
20697;SDS011;10508;50.956;4.640;2023-04-23T03:37:00;16.95;;;8.88;;
20697;SDS011;10508;50.956;4.640;2023-04-23T03:39:26;16.50;;;8.80;;
20697;SDS011;10508;50.956;4.640;2023-04-23T03:41:52;13.38;;;8.68;;
20697;SDS011;10508;50.956;4.640;2023-04-23T03:44:19;15.70;;;8.35;;
20697;SDS011;10508;50.956;4.640;2023-04-23T03:46:45;17.25;;;8.93;;
20697;SDS011;10508;50.956;4.640;2023-04-23T03:49:11;14.15;;;8.25;;
20697;SDS011;10508;50.956;4.640;2023-04-23T03:51:37;16.48;;;9.05;;
20697;SDS011;10508;50.956;4.640;2023-04-23T03:54:03;17.00;;;8.60;;
20697;SDS011;10508;50.956;4.640;2023-04-23T03:56:29;16.42;;;9.18;;
20697;SDS011;10508;50.956;4.640;2023-04-23T03:58:55;19.25;;;8.93;;
20697;SDS011;10508;50.956;4.640;2023-04-23T04:01:21;14.20;;;8.25;;
20697;SDS011;10508;50.956;4.640;2023-04-23T04:03:47;15.90;;;9.32;;
20697;SDS011;10508;50.956;4.640;2023-04-23T04:06:13;14.80;;;8.63;;
20697;SDS011;10508;50.956;4.640;2023-04-23T04:08:39;19.63;;;9.02;;
20697;SDS011;10508;50.956;4.640;2023-04-23T04:11:05;14.98;;;8.48;;
20697;SDS011;10508;50.956;4.640;2023-04-23T04:13:32;16.13;;;8.75;;
20697;SDS011;10508;50.956;4.640;2023-04-23T04:15:58;17.52;;;8.75;;
20697;SDS011;10508;50.956;4.640;2023-04-23T04:18:24;15.82;;;8.23;;
20697;SDS011;10508;50.956;4.640;2023-04-23T04:20:50;13.90;;;8.18;;
20697;SDS011;10508;50.956;4.640;2023-04-23T04:23:17;14.93;;;8.02;;
20697;SDS011;10508;50.956;4.640;2023-04-23T04:25:43;21.23;;;8.77;;
20697;SDS011;10508;50.956;4.640;2023-04-23T04:28:09;15.55;;;8.52;;
20697;SDS011;10508;50.956;4.640;2023-04-23T04:30:36;16.65;;;7.82;;
20697;SDS011;10508;50.956;4.640;2023-04-23T04:33:02;16.80;;;8.40;;
20697;SDS011;10508;50.956;4.640;2023-04-23T04:35:28;11.80;;;6.97;;
20697;SDS011;10508;50.956;4.640;2023-04-23T04:37:55;14.77;;;7.75;;
20697;SDS011;10508;50.956;4.640;2023-04-23T04:40:21;14.43;;;8.00;;
20697;SDS011;10508;50.956;4.640;2023-04-23T04:42:47;14.27;;;7.93;;
20697;SDS011;10508;50.956;4.640;2023-04-23T04:45:13;16.45;;;7.38;;
20697;SDS011;10508;50.956;4.640;2023-04-23T04:47:39;16.75;;;6.97;;
20697;SDS011;10508;50.956;4.640;2023-04-23T04:50:06;16.35;;;7.53;;
20697;SDS011;10508;50.956;4.640;2023-04-23T04:52:32;16.95;;;7.53;;
20697;SDS011;10508;50.956;4.640;2023-04-23T04:54:58;17.23;;;7.25;;
20697;SDS011;10508;50.956;4.640;2023-04-23T04:57:24;14.43;;;7.13;;
20697;SDS011;10508;50.956;4.640;2023-04-23T04:59:50;14.32;;;7.03;;
20697;SDS011;10508;50.956;4.640;2023-04-23T05:02:16;13.27;;;7.05;;
20697;SDS011;10508;50.956;4.640;2023-04-23T05:04:42;11.88;;;6.63;;
20697;SDS011;10508;50.956;4.640;2023-04-23T05:07:08;16.58;;;6.75;;
20697;SDS011;10508;50.956;4.640;2023-04-23T05:09:35;11.48;;;7.05;;
20697;SDS011;10508;50.956;4.640;2023-04-23T05:12:01;12.80;;;6.75;;
20697;SDS011;10508;50.956;4.640;2023-04-23T05:14:27;10.32;;;6.32;;
20697;SDS011;10508;50.956;4.640;2023-04-23T05:16:53;12.85;;;6.93;;
20697;SDS011;10508;50.956;4.640;2023-04-23T05:19:19;12.80;;;6.35;;
20697;SDS011;10508;50.956;4.640;2023-04-23T05:21:45;15.38;;;6.60;;
20697;SDS011;10508;50.956;4.640;2023-04-23T05:24:11;16.42;;;7.25;;
20697;SDS011;10508;50.956;4.640;2023-04-23T05:26:37;11.60;;;6.50;;
20697;SDS011;10508;50.956;4.640;2023-04-23T05:29:03;13.45;;;5.72;;
20697;SDS011;10508;50.956;4.640;2023-04-23T05:31:29;9.80;;;6.20;;
20697;SDS011;10508;50.956;4.640;2023-04-23T05:33:55;10.65;;;6.38;;
20697;SDS011;10508;50.956;4.640;2023-04-23T05:36:21;9.20;;;5.43;;
20697;SDS011;10508;50.956;4.640;2023-04-23T05:38:47;9.52;;;5.43;;
20697;SDS011;10508;50.956;4.640;2023-04-23T05:41:13;10.88;;;5.50;;
20697;SDS011;10508;50.956;4.640;2023-04-23T05:43:40;14.43;;;6.18;;
20697;SDS011;10508;50.956;4.640;2023-04-23T05:46:06;12.20;;;6.35;;
20697;SDS011;10508;50.956;4.640;2023-04-23T05:48:32;14.35;;;5.50;;
20697;SDS011;10508;50.956;4.640;2023-04-23T05:50:58;8.25;;;4.82;;
20697;SDS011;10508;50.956;4.640;2023-04-23T05:53:24;11.85;;;5.18;;
20697;SDS011;10508;50.956;4.640;2023-04-23T05:55:51;14.07;;;5.18;;
20697;SDS011;10508;50.956;4.640;2023-04-23T05:58:17;9.00;;;4.78;;
20697;SDS011;10508;50.956;4.640;2023-04-23T06:00:43;11.23;;;4.82;;
20697;SDS011;10508;50.956;4.640;2023-04-23T06:03:09;13.68;;;4.95;;
20697;SDS011;10508;50.956;4.640;2023-04-23T06:05:35;12.93;;;4.78;;
20697;SDS011;10508;50.956;4.640;2023-04-23T06:08:02;9.68;;;4.57;;
20697;SDS011;10508;50.956;4.640;2023-04-23T06:10:28;9.30;;;4.03;;
20697;SDS011;10508;50.956;4.640;2023-04-23T06:12:54;11.20;;;4.57;;
20697;SDS011;10508;50.956;4.640;2023-04-23T06:15:20;6.72;;;4.35;;
20697;SDS011;10508;50.956;4.640;2023-04-23T06:17:50;11.52;;;4.10;;
20697;SDS011;10508;50.956;4.640;2023-04-23T06:20:18;9.15;;;4.25;;
20697;SDS011;10508;50.956;4.640;2023-04-23T06:22:44;13.60;;;4.82;;
20697;SDS011;10508;50.956;4.640;2023-04-23T06:25:10;10.82;;;4.35;;
20697;SDS011;10508;50.956;4.640;2023-04-23T06:27:36;7.82;;;4.15;;
20697;SDS011;10508;50.956;4.640;2023-04-23T06:30:02;6.72;;;3.17;;
20697;SDS011;10508;50.956;4.640;2023-04-23T06:32:28;14.43;;;4.75;;
20697;SDS011;10508;50.956;4.640;2023-04-23T06:34:54;7.35;;;3.65;;
20697;SDS011;10508;50.956;4.640;2023-04-23T06:37:21;7.40;;;3.67;;
20697;SDS011;10508;50.956;4.640;2023-04-23T06:39:47;8.15;;;3.70;;
20697;SDS011;10508;50.956;4.640;2023-04-23T06:42:13;11.00;;;3.53;;
20697;SDS011;10508;50.956;4.640;2023-04-23T06:44:39;9.98;;;3.67;;
20697;SDS011;10508;50.956;4.640;2023-04-23T06:47:05;7.43;;;3.60;;
20697;SDS011;10508;50.956;4.640;2023-04-23T06:49:31;9.85;;;3.35;;
20697;SDS011;10508;50.956;4.640;2023-04-23T06:51:57;9.25;;;3.80;;
20697;SDS011;10508;50.956;4.640;2023-04-23T06:54:23;5.20;;;3.28;;
20697;SDS011;10508;50.956;4.640;2023-04-23T06:56:50;8.27;;;3.45;;
20697;SDS011;10508;50.956;4.640;2023-04-23T06:59:16;10.85;;;3.17;;
20697;SDS011;10508;50.956;4.640;2023-04-23T07:01:43;7.40;;;3.25;;
20697;SDS011;10508;50.956;4.640;2023-04-23T07:04:09;9.98;;;3.17;;
20697;SDS011;10508;50.956;4.640;2023-04-23T07:06:35;7.03;;;3.15;;
20697;SDS011;10508;50.956;4.640;2023-04-23T07:09:01;10.85;;;3.47;;
20697;SDS011;10508;50.956;4.640;2023-04-23T07:11:27;7.28;;;2.67;;
20697;SDS011;10508;50.956;4.640;2023-04-23T07:13:55;8.73;;;2.90;;
20697;SDS011;10508;50.956;4.640;2023-04-23T07:16:21;8.30;;;3.70;;
20697;SDS011;10508;50.956;4.640;2023-04-23T07:18:49;6.35;;;2.72;;
20697;SDS011;10508;50.956;4.640;2023-04-23T07:21:15;10.98;;;3.03;;
20697;SDS011;10508;50.956;4.640;2023-04-23T07:23:41;7.70;;;3.03;;
20697;SDS011;10508;50.956;4.640;2023-04-23T07:26:07;9.23;;;2.85;;
20697;SDS011;10508;50.956;4.640;2023-04-23T07:28:33;6.53;;;2.60;;
20697;SDS011;10508;50.956;4.640;2023-04-23T07:31:00;5.53;;;2.95;;
20697;SDS011;10508;50.956;4.640;2023-04-23T07:33:26;14.52;;;2.78;;
20697;SDS011;10508;50.956;4.640;2023-04-23T07:35:53;10.75;;;3.38;;
20697;SDS011;10508;50.956;4.640;2023-04-23T07:38:19;7.50;;;2.50;;
20697;SDS011;10508;50.956;4.640;2023-04-23T07:40:45;12.68;;;3.40;;
20697;SDS011;10508;50.956;4.640;2023-04-23T07:43:11;6.57;;;2.85;;
20697;SDS011;10508;50.956;4.640;2023-04-23T07:45:38;10.38;;;2.50;;
20697;SDS011;10508;50.956;4.640;2023-04-23T07:48:04;12.05;;;2.67;;
20697;SDS011;10508;50.956;4.640;2023-04-23T07:50:30;12.35;;;2.72;;
20697;SDS011;10508;50.956;4.640;2023-04-23T07:52:56;7.43;;;2.50;;
20697;SDS011;10508;50.956;4.640;2023-04-23T07:55:22;11.70;;;2.30;;
20697;SDS011;10508;50.956;4.640;2023-04-23T07:57:48;8.63;;;2.97;;
20697;SDS011;10508;50.956;4.640;2023-04-23T08:00:15;13.77;;;3.20;;
20697;SDS011;10508;50.956;4.640;2023-04-23T08:02:41;9.10;;;2.80;;
20697;SDS011;10508;50.956;4.640;2023-04-23T08:05:07;11.30;;;2.08;;
20697;SDS011;10508;50.956;4.640;2023-04-23T08:07:33;6.03;;;2.42;;
20697;SDS011;10508;50.956;4.640;2023-04-23T08:09:59;7.05;;;2.03;;
20697;SDS011;10508;50.956;4.640;2023-04-23T08:12:29;10.10;;;2.20;;
20697;SDS011;10508;50.956;4.640;2023-04-23T08:14:55;9.43;;;2.70;;
20697;SDS011;10508;50.956;4.640;2023-04-23T08:17:21;6.70;;;2.40;;
20697;SDS011;10508;50.956;4.640;2023-04-23T08:19:47;7.35;;;2.58;;
20697;SDS011;10508;50.956;4.640;2023-04-23T08:22:13;9.18;;;2.05;;
20697;SDS011;10508;50.956;4.640;2023-04-23T08:24:41;7.22;;;2.00;;
20697;SDS011;10508;50.956;4.640;2023-04-23T08:27:07;6.60;;;1.75;;
20697;SDS011;10508;50.956;4.640;2023-04-23T08:29:33;9.32;;;1.95;;
20697;SDS011;10508;50.956;4.640;2023-04-23T08:31:59;12.45;;;2.10;;
20697;SDS011;10508;50.956;4.640;2023-04-23T08:34:25;3.75;;;1.90;;
20697;SDS011;10508;50.956;4.640;2023-04-23T08:36:51;6.03;;;2.08;;
20697;SDS011;10508;50.956;4.640;2023-04-23T08:39:17;4.47;;;2.15;;
20697;SDS011;10508;50.956;4.640;2023-04-23T08:41:44;3.13;;;1.63;;
20697;SDS011;10508;50.956;4.640;2023-04-23T08:44:12;9.65;;;1.80;;
20697;SDS011;10508;50.956;4.640;2023-04-23T08:46:43;10.32;;;1.75;;
20697;SDS011;10508;50.956;4.640;2023-04-23T08:49:13;4.53;;;1.63;;
20697;SDS011;10508;50.956;4.640;2023-04-23T08:51:42;7.68;;;1.67;;
20697;SDS011;10508;50.956;4.640;2023-04-23T08:54:09;3.25;;;1.50;;
20697;SDS011;10508;50.956;4.640;2023-04-23T08:56:39;4.30;;;1.40;;
20697;SDS011;10508;50.956;4.640;2023-04-23T08:59:06;6.85;;;1.70;;
20697;SDS011;10508;50.956;4.640;2023-04-23T09:01:32;6.53;;;1.50;;
20697;SDS011;10508;50.956;4.640;2023-04-23T09:03:59;7.53;;;1.83;;
20697;SDS011;10508;50.956;4.640;2023-04-23T09:06:25;3.33;;;1.45;;
20697;SDS011;10508;50.956;4.640;2023-04-23T09:08:51;5.13;;;1.52;;
20697;SDS011;10508;50.956;4.640;2023-04-23T09:11:18;2.13;;;1.10;;
20697;SDS011;10508;50.956;4.640;2023-04-23T09:13:45;2.83;;;1.35;;
20697;SDS011;10508;50.956;4.640;2023-04-23T09:16:11;5.38;;;1.65;;
20697;SDS011;10508;50.956;4.640;2023-04-23T09:18:37;3.72;;;1.83;;
20697;SDS011;10508;50.956;4.640;2023-04-23T09:21:03;4.38;;;1.90;;
20697;SDS011;10508;50.956;4.640;2023-04-23T09:23:29;6.97;;;1.65;;
20697;SDS011;10508;50.956;4.640;2023-04-23T09:25:56;5.32;;;1.80;;
20697;SDS011;10508;50.956;4.640;2023-04-23T09:28:32;4.68;;;1.65;;
20697;SDS011;10508;50.956;4.640;2023-04-23T09:31:00;6.10;;;1.50;;
20697;SDS011;10508;50.956;4.640;2023-04-23T09:33:26;9.00;;;2.35;;
20697;SDS011;10508;50.956;4.640;2023-04-23T09:35:53;9.10;;;1.85;;
20697;SDS011;10508;50.956;4.640;2023-04-23T09:38:19;5.40;;;1.90;;
20697;SDS011;10508;50.956;4.640;2023-04-23T09:40:45;6.85;;;1.50;;
20697;SDS011;10508;50.956;4.640;2023-04-23T09:43:11;7.25;;;1.77;;
20697;SDS011;10508;50.956;4.640;2023-04-23T09:45:46;5.13;;;1.80;;
20697;SDS011;10508;50.956;4.640;2023-04-23T09:48:12;6.28;;;1.48;;
20697;SDS011;10508;50.956;4.640;2023-04-23T09:50:39;2.88;;;1.20;;
20697;SDS011;10508;50.956;4.640;2023-04-23T09:53:06;5.18;;;1.48;;
20697;SDS011;10508;50.956;4.640;2023-04-23T09:55:33;4.80;;;1.23;;
20697;SDS011;10508;50.956;4.640;2023-04-23T09:58:02;2.97;;;1.25;;
20697;SDS011;10508;50.956;4.640;2023-04-23T10:00:31;3.53;;;1.25;;
20697;SDS011;10508;50.956;4.640;2023-04-23T10:02:58;5.82;;;1.48;;
20697;SDS011;10508;50.956;4.640;2023-04-23T10:05:24;5.97;;;1.20;;
20697;SDS011;10508;50.956;4.640;2023-04-23T10:07:51;6.80;;;1.45;;
20697;SDS011;10508;50.956;4.640;2023-04-23T10:10:17;12.20;;;1.60;;
20697;SDS011;10508;50.956;4.640;2023-04-23T10:12:44;5.47;;;1.25;;
20697;SDS011;10508;50.956;4.640;2023-04-23T10:15:11;2.40;;;1.17;;
20697;SDS011;10508;50.956;4.640;2023-04-23T10:17:37;5.97;;;1.42;;
20697;SDS011;10508;50.956;4.640;2023-04-23T10:20:04;4.25;;;1.30;;
20697;SDS011;10508;50.956;4.640;2023-04-23T10:22:32;9.70;;;1.30;;
20697;SDS011;10508;50.956;4.640;2023-04-23T10:24:59;5.30;;;0.93;;
20697;SDS011;10508;50.956;4.640;2023-04-23T10:27:27;4.15;;;1.00;;
20697;SDS011;10508;50.956;4.640;2023-04-23T10:29:53;5.65;;;1.25;;
20697;SDS011;10508;50.956;4.640;2023-04-23T10:32:19;6.88;;;0.98;;
20697;SDS011;10508;50.956;4.640;2023-04-23T10:34:46;3.50;;;0.90;;
20697;SDS011;10508;50.956;4.640;2023-04-23T10:37:12;3.28;;;0.70;;
20697;SDS011;10508;50.956;4.640;2023-04-23T10:39:41;4.13;;;0.80;;
20697;SDS011;10508;50.956;4.640;2023-04-23T10:42:07;1.85;;;0.63;;
20697;SDS011;10508;50.956;4.640;2023-04-23T10:44:37;9.82;;;1.33;;
20697;SDS011;10508;50.956;4.640;2023-04-23T10:47:04;4.32;;;1.40;;
20697;SDS011;10508;50.956;4.640;2023-04-23T10:49:31;3.60;;;1.23;;
20697;SDS011;10508;50.956;4.640;2023-04-23T10:54:27;9.13;;;1.10;;
20697;SDS011;10508;50.956;4.640;2023-04-23T10:56:57;7.03;;;1.17;;
20697;SDS011;10508;50.956;4.640;2023-04-23T10:59:23;4.38;;;0.93;;
20697;SDS011;10508;50.956;4.640;2023-04-23T11:01:50;3.33;;;0.77;;
20697;SDS011;10508;50.956;4.640;2023-04-23T11:04:23;7.03;;;0.68;;
20697;SDS011;10508;50.956;4.640;2023-04-23T11:06:53;6.38;;;1.13;;
20697;SDS011;10508;50.956;4.640;2023-04-23T11:12:09;5.53;;;0.98;;
20697;SDS011;10508;50.956;4.640;2023-04-23T11:17:03;8.88;;;1.30;;
20697;SDS011;10508;50.956;4.640;2023-04-23T11:19:30;4.00;;;0.85;;
20697;SDS011;10508;50.956;4.640;2023-04-23T11:24:29;3.15;;;0.77;;
20697;SDS011;10508;50.956;4.640;2023-04-23T11:26:55;5.88;;;1.13;;
20697;SDS011;10508;50.956;4.640;2023-04-23T11:29:22;2.25;;;0.82;;
20697;SDS011;10508;50.956;4.640;2023-04-23T11:31:48;8.40;;;1.35;;
20697;SDS011;10508;50.956;4.640;2023-04-23T11:34:15;10.35;;;1.35;;
20697;SDS011;10508;50.956;4.640;2023-04-23T11:36:41;4.00;;;1.00;;
20697;SDS011;10508;50.956;4.640;2023-04-23T11:39:07;7.18;;;1.08;;
20697;SDS011;10508;50.956;4.640;2023-04-23T11:41:34;5.30;;;1.13;;
20697;SDS011;10508;50.956;4.640;2023-04-23T11:44:01;5.43;;;0.80;;
20697;SDS011;10508;50.956;4.640;2023-04-23T11:46:28;6.93;;;1.23;;
20697;SDS011;10508;50.956;4.640;2023-04-23T11:48:54;2.95;;;1.27;;
20697;SDS011;10508;50.956;4.640;2023-04-23T11:51:26;3.67;;;0.80;;
20697;SDS011;10508;50.956;4.640;2023-04-23T11:53:52;9.18;;;0.90;;
20697;SDS011;10508;50.956;4.640;2023-04-23T11:56:18;5.25;;;1.02;;
20697;SDS011;10508;50.956;4.640;2023-04-23T11:58:44;2.35;;;0.98;;
20697;SDS011;10508;50.956;4.640;2023-04-23T12:01:11;5.35;;;1.02;;
20697;SDS011;10508;50.956;4.640;2023-04-23T12:03:37;6.05;;;1.00;;
20697;SDS011;10508;50.956;4.640;2023-04-23T12:06:04;5.15;;;0.80;;
20697;SDS011;10508;50.956;4.640;2023-04-23T12:08:31;8.27;;;1.15;;
20697;SDS011;10508;50.956;4.640;2023-04-23T12:11:04;4.32;;;0.77;;
20697;SDS011;10508;50.956;4.640;2023-04-23T12:13:32;7.78;;;1.08;;
20697;SDS011;10508;50.956;4.640;2023-04-23T12:15:59;5.40;;;0.90;;
20697;SDS011;10508;50.956;4.640;2023-04-23T12:18:26;9.60;;;1.25;;
20697;SDS011;10508;50.956;4.640;2023-04-23T12:20:52;1.48;;;0.75;;
20697;SDS011;10508;50.956;4.640;2023-04-23T12:23:24;3.85;;;0.73;;
20697;SDS011;10508;50.956;4.640;2023-04-23T12:25:51;8.48;;;1.05;;
20697;SDS011;10508;50.956;4.640;2023-04-23T12:28:21;7.70;;;0.98;;
20697;SDS011;10508;50.956;4.640;2023-04-23T12:30:48;3.08;;;0.90;;
20697;SDS011;10508;50.956;4.640;2023-04-23T12:33:14;3.00;;;0.65;;
20697;SDS011;10508;50.956;4.640;2023-04-23T12:35:41;3.40;;;0.73;;
20697;SDS011;10508;50.956;4.640;2023-04-23T12:38:20;6.43;;;1.15;;
20697;SDS011;10508;50.956;4.640;2023-04-23T12:41:07;5.32;;;0.88;;
20697;SDS011;10508;50.956;4.640;2023-04-23T12:43:33;2.83;;;0.85;;
20697;SDS011;10508;50.956;4.640;2023-04-23T12:46:00;5.18;;;1.27;;
20697;SDS011;10508;50.956;4.640;2023-04-23T12:48:25;4.97;;;0.98;;
20697;SDS011;10508;50.956;4.640;2023-04-23T12:50:52;2.67;;;0.70;;
20697;SDS011;10508;50.956;4.640;2023-04-23T12:53:18;6.13;;;1.13;;
20697;SDS011;10508;50.956;4.640;2023-04-23T12:55:44;2.08;;;0.77;;
20697;SDS011;10508;50.956;4.640;2023-04-23T12:58:10;3.33;;;0.90;;
20697;SDS011;10508;50.956;4.640;2023-04-23T13:00:36;3.50;;;0.90;;
20697;SDS011;10508;50.956;4.640;2023-04-23T13:03:02;6.07;;;1.15;;
20697;SDS011;10508;50.956;4.640;2023-04-23T13:05:28;3.75;;;1.33;;
20697;SDS011;10508;50.956;4.640;2023-04-23T13:07:54;6.82;;;1.20;;
20697;SDS011;10508;50.956;4.640;2023-04-23T13:10:21;1.73;;;1.40;;
20697;SDS011;10508;50.956;4.640;2023-04-23T13:12:47;2.35;;;1.02;;
20697;SDS011;10508;50.956;4.640;2023-04-23T13:15:13;3.83;;;0.85;;
20697;SDS011;10508;50.956;4.640;2023-04-23T13:17:39;2.17;;;0.88;;
20697;SDS011;10508;50.956;4.640;2023-04-23T13:20:05;4.15;;;1.13;;
20697;SDS011;10508;50.956;4.640;2023-04-23T13:22:32;3.13;;;1.08;;
20697;SDS011;10508;50.956;4.640;2023-04-23T13:24:58;2.72;;;1.20;;
20697;SDS011;10508;50.956;4.640;2023-04-23T13:27:39;3.05;;;1.05;;
20697;SDS011;10508;50.956;4.640;2023-04-23T13:30:06;4.47;;;1.48;;
20697;SDS011;10508;50.956;4.640;2023-04-23T13:32:32;2.95;;;1.27;;
20697;SDS011;10508;50.956;4.640;2023-04-23T13:34:58;2.22;;;1.35;;
20697;SDS011;10508;50.956;4.640;2023-04-23T13:37:27;3.40;;;1.60;;
20697;SDS011;10508;50.956;4.640;2023-04-23T13:39:55;4.45;;;1.27;;
20697;SDS011;10508;50.956;4.640;2023-04-23T13:42:21;4.72;;;0.93;;
20697;SDS011;10508;50.956;4.640;2023-04-23T13:44:47;4.47;;;1.52;;
20697;SDS011;10508;50.956;4.640;2023-04-23T13:47:13;3.70;;;0.95;;
20697;SDS011;10508;50.956;4.640;2023-04-23T13:49:39;3.72;;;1.27;;
20697;SDS011;10508;50.956;4.640;2023-04-23T13:52:06;4.25;;;1.15;;
20697;SDS011;10508;50.956;4.640;2023-04-23T13:54:33;3.22;;;1.27;;
20697;SDS011;10508;50.956;4.640;2023-04-23T13:56:59;7.18;;;1.50;;
20697;SDS011;10508;50.956;4.640;2023-04-23T13:59:26;3.03;;;1.08;;
20697;SDS011;10508;50.956;4.640;2023-04-23T14:01:52;1.98;;;1.08;;
20697;SDS011;10508;50.956;4.640;2023-04-23T14:04:19;2.92;;;1.20;;
20697;SDS011;10508;50.956;4.640;2023-04-23T14:06:48;3.28;;;1.10;;
20697;SDS011;10508;50.956;4.640;2023-04-23T14:09:15;4.22;;;0.98;;
20697;SDS011;10508;50.956;4.640;2023-04-23T14:11:41;2.78;;;1.13;;
20697;SDS011;10508;50.956;4.640;2023-04-23T14:14:07;4.53;;;1.27;;
20697;SDS011;10508;50.956;4.640;2023-04-23T14:16:33;4.20;;;1.20;;
20697;SDS011;10508;50.956;4.640;2023-04-23T14:18:59;4.53;;;1.30;;
20697;SDS011;10508;50.956;4.640;2023-04-23T14:21:25;6.57;;;1.90;;
20697;SDS011;10508;50.956;4.640;2023-04-23T14:23:55;3.53;;;1.02;;
20697;SDS011;10508;50.956;4.640;2023-04-23T14:26:27;8.10;;;1.50;;
20697;SDS011;10508;50.956;4.640;2023-04-23T14:28:55;3.78;;;1.27;;
20697;SDS011;10508;50.956;4.640;2023-04-23T14:31:21;3.83;;;1.27;;
20697;SDS011;10508;50.956;4.640;2023-04-23T14:33:47;3.15;;;1.38;;
20697;SDS011;10508;50.956;4.640;2023-04-23T14:36:13;5.70;;;2.42;;
20697;SDS011;10508;50.956;4.640;2023-04-23T14:38:39;2.35;;;1.50;;
20697;SDS011;10508;50.956;4.640;2023-04-23T14:41:05;2.50;;;1.40;;
20697;SDS011;10508;50.956;4.640;2023-04-23T14:43:32;6.18;;;1.88;;
20697;SDS011;10508;50.956;4.640;2023-04-23T14:45:58;4.72;;;1.70;;